This is the latest recevied weather packets stored in our database for station/object SP6PGH-13. If no packets are shown the sender has not sent any weather packets the latest 10 day(s).
| Time | Temp. | Humidity | Pressure | Rain* | Wind** | Luminosity | Snow |
|---|---|---|---|---|---|---|---|
| 1777630403 | 20° C | 34% | 1013.1 hPa | - | - | 715 W/m² | - |
| 1777629502 | 20° C | 34% | 1013.2 hPa | - | - | 710 W/m² | - |
| 1777628601 | 19.44° C | 35% | 1013.2 hPa | - | - | 691 W/m² | - |
| 1777627700 | 19.44° C | 36% | 1013.3 hPa | - | - | 676 W/m² | - |
| 1777626799 | 18.33° C | 35% | 1013.5 hPa | - | - | 649 W/m² | - |
| 1777625898 | 18.33° C | 37% | 1013.6 hPa | - | - | 633 W/m² | - |
| 1777624997 | 18.33° C | 36% | 1013.6 hPa | - | - | 600 W/m² | - |
| 1777624097 | 17.78° C | 38% | 1013.6 hPa | - | - | 584 W/m² | - |
| 1777623196 | 16.67° C | 43% | 1013.7 hPa | - | - | 545 W/m² | - |
| 1777622295 | 16.67° C | 43% | 1013.6 hPa | - | - | 501 W/m² | - |
| 1777621394 | 15.56° C | 46% | 1013.7 hPa | - | - | 461 W/m² | - |
| 1777620492 | 15.56° C | 46% | 1013.7 hPa | - | - | 422 W/m² | - |
| 1777619591 | 15° C | 48% | 1013.7 hPa | - | - | 381 W/m² | - |
| 1777618690 | 14.44° C | 50% | 1013.8 hPa | - | - | 333 W/m² | - |
| 1777617790 | 13.33° C | 54% | 1013.8 hPa | - | - | 291 W/m² | - |
| 1777616889 | 12.78° C | 56% | 1013.9 hPa | - | - | 180 W/m² | - |
| 1777615988 | 11.67° C | 59% | 1013.8 hPa | - | - | 50 W/m² | - |
| 1777615087 | 10.56° C | 61% | 1013.8 hPa | - | - | 47 W/m² | - |
| 1777614186 | 9.44° C | 64% | 1013.8 hPa | - | - | 45 W/m² | - |
| 1777613285 | 8.33° C | 68% | 1013.8 hPa | - | - | 42 W/m² | - |
| 1777612384 | 7.78° C | 70% | 1013.9 hPa | - | - | 38 W/m² | - |
| 1777611482 | 6.67° C | 72% | 1013.8 hPa | - | - | 35 W/m² | - |
| 1777610581 | 6.67° C | 73% | 1013.8 hPa | - | - | 31 W/m² | - |
| 1777609680 | 6.11° C | 75% | 1013.7 hPa | - | - | 27 W/m² | - |
| 1777608780 | 5.56° C | 76% | 1013.7 hPa | - | - | 21 W/m² | - |
* Rain since midnight (hover to see other rain measurements)
** Current wind speed in m/s (hover to see current wind gust speed)